sensor_id;sensor_type;location;lat;lon;timestamp;P1;durP1;ratioP1;P2;durP2;ratioP2
13439;SDS011;6792;57.698;11.946;2023-02-28T00:00:30;11.13;;;3.80;;
13439;SDS011;6792;57.698;11.946;2023-02-28T00:03:00;11.67;;;4.50;;
13439;SDS011;6792;57.698;11.946;2023-02-28T00:05:29;11.83;;;3.60;;
13439;SDS011;6792;57.698;11.946;2023-02-28T00:07:59;10.50;;;4.07;;
13439;SDS011;6792;57.698;11.946;2023-02-28T00:10:28;9.23;;;3.77;;
13439;SDS011;6792;57.698;11.946;2023-02-28T00:13:00;6.90;;;3.60;;
13439;SDS011;6792;57.698;11.946;2023-02-28T00:15:31;5.47;;;3.50;;
13439;SDS011;6792;57.698;11.946;2023-02-28T00:18:01;6.80;;;3.90;;
13439;SDS011;6792;57.698;11.946;2023-02-28T00:20:30;12.13;;;3.87;;
13439;SDS011;6792;57.698;11.946;2023-02-28T00:22:59;34.90;;;5.37;;
13439;SDS011;6792;57.698;11.946;2023-02-28T00:25:28;7.40;;;3.53;;
13439;SDS011;6792;57.698;11.946;2023-02-28T00:27:57;9.80;;;3.67;;
13439;SDS011;6792;57.698;11.946;2023-02-28T00:30:26;6.77;;;3.47;;
13439;SDS011;6792;57.698;11.946;2023-02-28T00:32:55;8.70;;;3.97;;
13439;SDS011;6792;57.698;11.946;2023-02-28T00:35:25;7.17;;;3.90;;
13439;SDS011;6792;57.698;11.946;2023-02-28T00:37:54;8.70;;;4.30;;
13439;SDS011;6792;57.698;11.946;2023-02-28T00:40:23;11.97;;;4.03;;
13439;SDS011;6792;57.698;11.946;2023-02-28T00:42:52;8.43;;;3.73;;
13439;SDS011;6792;57.698;11.946;2023-02-28T00:45:22;7.90;;;3.60;;
13439;SDS011;6792;57.698;11.946;2023-02-28T00:47:51;8.50;;;3.57;;
13439;SDS011;6792;57.698;11.946;2023-02-28T00:50:20;7.57;;;4.13;;
13439;SDS011;6792;57.698;11.946;2023-02-28T00:52:49;9.40;;;3.70;;
13439;SDS011;6792;57.698;11.946;2023-02-28T00:55:18;8.10;;;4.17;;
13439;SDS011;6792;57.698;11.946;2023-02-28T00:57:47;6.40;;;4.07;;
13439;SDS011;6792;57.698;11.946;2023-02-28T01:00:16;9.90;;;4.03;;
13439;SDS011;6792;57.698;11.946;2023-02-28T01:02:46;6.87;;;4.03;;
13439;SDS011;6792;57.698;11.946;2023-02-28T01:05:15;11.20;;;3.70;;
13439;SDS011;6792;57.698;11.946;2023-02-28T01:07:45;9.57;;;3.83;;
13439;SDS011;6792;57.698;11.946;2023-02-28T01:10:16;8.00;;;4.10;;
13439;SDS011;6792;57.698;11.946;2023-02-28T01:12:49;9.93;;;3.87;;
13439;SDS011;6792;57.698;11.946;2023-02-28T01:15:18;9.20;;;3.60;;
13439;SDS011;6792;57.698;11.946;2023-02-28T01:17:47;9.83;;;3.97;;
13439;SDS011;6792;57.698;11.946;2023-02-28T01:20:16;5.67;;;3.23;;
13439;SDS011;6792;57.698;11.946;2023-02-28T01:22:45;7.63;;;3.37;;
13439;SDS011;6792;57.698;11.946;2023-02-28T01:25:14;6.43;;;3.73;;
13439;SDS011;6792;57.698;11.946;2023-02-28T01:27:44;6.53;;;3.33;;
13439;SDS011;6792;57.698;11.946;2023-02-28T01:30:13;7.60;;;4.07;;
13439;SDS011;6792;57.698;11.946;2023-02-28T01:32:45;7.80;;;3.47;;
13439;SDS011;6792;57.698;11.946;2023-02-28T01:35:14;11.97;;;3.53;;
13439;SDS011;6792;57.698;11.946;2023-02-28T01:37:43;5.23;;;3.03;;
13439;SDS011;6792;57.698;11.946;2023-02-28T01:40:13;8.47;;;3.53;;
13439;SDS011;6792;57.698;11.946;2023-02-28T01:42:42;6.43;;;3.87;;
13439;SDS011;6792;57.698;11.946;2023-02-28T01:45:22;5.37;;;3.33;;
13439;SDS011;6792;57.698;11.946;2023-02-28T01:47:55;6.80;;;3.17;;
13439;SDS011;6792;57.698;11.946;2023-02-28T01:50:27;8.33;;;3.70;;
13439;SDS011;6792;57.698;11.946;2023-02-28T01:52:59;5.77;;;2.93;;
13439;SDS011;6792;57.698;11.946;2023-02-28T01:55:30;8.97;;;3.80;;
13439;SDS011;6792;57.698;11.946;2023-02-28T01:58:02;6.53;;;3.10;;
13439;SDS011;6792;57.698;11.946;2023-02-28T02:00:32;9.70;;;3.40;;
13439;SDS011;6792;57.698;11.946;2023-02-28T02:03:04;4.70;;;3.10;;
13439;SDS011;6792;57.698;11.946;2023-02-28T02:05:35;14.47;;;3.80;;
13439;SDS011;6792;57.698;11.946;2023-02-28T02:08:07;6.30;;;3.40;;
13439;SDS011;6792;57.698;11.946;2023-02-28T02:10:40;8.10;;;3.60;;
13439;SDS011;6792;57.698;11.946;2023-02-28T02:13:11;5.83;;;3.20;;
13439;SDS011;6792;57.698;11.946;2023-02-28T02:15:59;9.17;;;3.47;;
13439;SDS011;6792;57.698;11.946;2023-02-28T02:18:30;4.57;;;2.77;;
13439;SDS011;6792;57.698;11.946;2023-02-28T02:21:11;7.43;;;3.77;;
13439;SDS011;6792;57.698;11.946;2023-02-28T02:24:02;5.83;;;3.50;;
13439;SDS011;6792;57.698;11.946;2023-02-28T02:27:04;6.70;;;3.10;;
13439;SDS011;6792;57.698;11.946;2023-02-28T02:29:48;8.23;;;3.43;;
13439;SDS011;6792;57.698;11.946;2023-02-28T02:32:47;6.53;;;3.40;;
13439;SDS011;6792;57.698;11.946;2023-02-28T02:38:31;6.40;;;2.97;;
13439;SDS011;6792;57.698;11.946;2023-02-28T02:41:04;6.87;;;2.93;;
13439;SDS011;6792;57.698;11.946;2023-02-28T02:43:38;4.93;;;2.97;;
13439;SDS011;6792;57.698;11.946;2023-02-28T02:46:10;5.97;;;3.27;;
13439;SDS011;6792;57.698;11.946;2023-02-28T02:48:42;7.17;;;3.23;;
13439;SDS011;6792;57.698;11.946;2023-02-28T02:51:14;8.77;;;3.50;;
13439;SDS011;6792;57.698;11.946;2023-02-28T02:53:47;5.13;;;3.13;;
13439;SDS011;6792;57.698;11.946;2023-02-28T02:56:17;8.03;;;3.80;;
13439;SDS011;6792;57.698;11.946;2023-02-28T02:58:49;9.73;;;2.83;;
13439;SDS011;6792;57.698;11.946;2023-02-28T03:01:21;8.17;;;3.00;;
13439;SDS011;6792;57.698;11.946;2023-02-28T03:03:55;6.53;;;2.80;;
13439;SDS011;6792;57.698;11.946;2023-02-28T03:06:27;10.53;;;3.87;;
13439;SDS011;6792;57.698;11.946;2023-02-28T03:08:56;8.77;;;3.60;;
13439;SDS011;6792;57.698;11.946;2023-02-28T03:11:25;8.27;;;3.70;;
13439;SDS011;6792;57.698;11.946;2023-02-28T03:17:30;8.90;;;3.50;;
13439;SDS011;6792;57.698;11.946;2023-02-28T03:20:30;7.13;;;3.20;;
13439;SDS011;6792;57.698;11.946;2023-02-28T03:23:14;9.47;;;3.47;;
13439;SDS011;6792;57.698;11.946;2023-02-28T03:25:53;7.47;;;3.53;;
13439;SDS011;6792;57.698;11.946;2023-02-28T03:28:27;5.30;;;3.37;;
13439;SDS011;6792;57.698;11.946;2023-02-28T03:31:02;10.10;;;3.07;;
13439;SDS011;6792;57.698;11.946;2023-02-28T03:33:36;15.70;;;3.10;;
13439;SDS011;6792;57.698;11.946;2023-02-28T03:36:09;7.63;;;3.57;;
13439;SDS011;6792;57.698;11.946;2023-02-28T03:38:40;9.47;;;3.50;;
13439;SDS011;6792;57.698;11.946;2023-02-28T03:41:13;5.50;;;3.33;;
13439;SDS011;6792;57.698;11.946;2023-02-28T03:43:46;7.90;;;3.37;;
13439;SDS011;6792;57.698;11.946;2023-02-28T03:46:20;8.70;;;3.60;;
13439;SDS011;6792;57.698;11.946;2023-02-28T03:48:52;10.50;;;3.20;;
13439;SDS011;6792;57.698;11.946;2023-02-28T03:51:23;6.50;;;3.40;;
13439;SDS011;6792;57.698;11.946;2023-02-28T03:53:56;11.10;;;4.00;;
13439;SDS011;6792;57.698;11.946;2023-02-28T03:56:27;8.70;;;4.03;;
13439;SDS011;6792;57.698;11.946;2023-02-28T03:59:00;7.60;;;3.73;;
13439;SDS011;6792;57.698;11.946;2023-02-28T04:01:31;12.53;;;3.50;;
13439;SDS011;6792;57.698;11.946;2023-02-28T04:04:03;8.83;;;3.33;;
13439;SDS011;6792;57.698;11.946;2023-02-28T04:06:32;8.23;;;3.53;;
13439;SDS011;6792;57.698;11.946;2023-02-28T04:09:02;8.07;;;2.97;;
13439;SDS011;6792;57.698;11.946;2023-02-28T04:11:33;8.73;;;3.57;;
13439;SDS011;6792;57.698;11.946;2023-02-28T04:14:03;7.73;;;3.33;;
13439;SDS011;6792;57.698;11.946;2023-02-28T04:16:34;7.43;;;3.60;;
13439;SDS011;6792;57.698;11.946;2023-02-28T04:19:04;7.37;;;3.33;;
13439;SDS011;6792;57.698;11.946;2023-02-28T04:21:36;8.40;;;3.03;;
13439;SDS011;6792;57.698;11.946;2023-02-28T04:24:06;10.00;;;3.37;;
13439;SDS011;6792;57.698;11.946;2023-02-28T04:26:38;8.60;;;3.43;;
13439;SDS011;6792;57.698;11.946;2023-02-28T04:29:09;7.30;;;3.70;;
13439;SDS011;6792;57.698;11.946;2023-02-28T04:31:39;8.20;;;3.47;;
13439;SDS011;6792;57.698;11.946;2023-02-28T04:34:08;7.17;;;3.30;;
13439;SDS011;6792;57.698;11.946;2023-02-28T04:36:38;5.07;;;3.07;;
13439;SDS011;6792;57.698;11.946;2023-02-28T04:39:07;3.93;;;2.97;;
13439;SDS011;6792;57.698;11.946;2023-02-28T04:41:36;6.40;;;3.07;;
13439;SDS011;6792;57.698;11.946;2023-02-28T04:44:05;8.03;;;3.13;;
13439;SDS011;6792;57.698;11.946;2023-02-28T04:46:34;6.90;;;2.50;;
13439;SDS011;6792;57.698;11.946;2023-02-28T04:49:03;7.80;;;3.23;;
13439;SDS011;6792;57.698;11.946;2023-02-28T04:51:32;5.70;;;2.70;;
13439;SDS011;6792;57.698;11.946;2023-02-28T04:54:01;4.10;;;2.50;;
13439;SDS011;6792;57.698;11.946;2023-02-28T04:56:31;4.37;;;2.97;;
13439;SDS011;6792;57.698;11.946;2023-02-28T04:59:00;6.93;;;3.17;;
13439;SDS011;6792;57.698;11.946;2023-02-28T05:01:30;7.93;;;3.10;;
13439;SDS011;6792;57.698;11.946;2023-02-28T05:04:01;6.00;;;2.50;;
13439;SDS011;6792;57.698;11.946;2023-02-28T05:06:32;8.00;;;3.03;;
13439;SDS011;6792;57.698;11.946;2023-02-28T05:09:01;5.63;;;3.10;;
13439;SDS011;6792;57.698;11.946;2023-02-28T05:11:31;7.33;;;2.90;;
13439;SDS011;6792;57.698;11.946;2023-02-28T05:14:02;6.73;;;3.00;;
13439;SDS011;6792;57.698;11.946;2023-02-28T05:16:32;4.60;;;2.70;;
13439;SDS011;6792;57.698;11.946;2023-02-28T05:19:03;4.40;;;2.50;;
13439;SDS011;6792;57.698;11.946;2023-02-28T05:21:34;5.87;;;2.90;;
13439;SDS011;6792;57.698;11.946;2023-02-28T05:24:05;8.63;;;3.20;;
13439;SDS011;6792;57.698;11.946;2023-02-28T05:26:36;5.73;;;2.70;;
13439;SDS011;6792;57.698;11.946;2023-02-28T05:29:10;9.37;;;3.00;;
13439;SDS011;6792;57.698;11.946;2023-02-28T05:31:40;5.67;;;2.93;;
13439;SDS011;6792;57.698;11.946;2023-02-28T05:34:09;9.03;;;2.97;;
13439;SDS011;6792;57.698;11.946;2023-02-28T05:36:39;14.27;;;2.93;;
13439;SDS011;6792;57.698;11.946;2023-02-28T05:39:08;13.33;;;2.87;;
13439;SDS011;6792;57.698;11.946;2023-02-28T05:41:40;8.07;;;2.90;;
13439;SDS011;6792;57.698;11.946;2023-02-28T05:44:09;7.43;;;2.73;;
13439;SDS011;6792;57.698;11.946;2023-02-28T05:46:39;6.23;;;2.80;;
13439;SDS011;6792;57.698;11.946;2023-02-28T05:49:08;4.97;;;2.50;;
13439;SDS011;6792;57.698;11.946;2023-02-28T05:51:37;6.27;;;2.90;;
13439;SDS011;6792;57.698;11.946;2023-02-28T05:54:06;6.50;;;3.23;;
13439;SDS011;6792;57.698;11.946;2023-02-28T05:56:35;10.20;;;2.70;;
13439;SDS011;6792;57.698;11.946;2023-02-28T05:59:06;8.83;;;3.43;;
13439;SDS011;6792;57.698;11.946;2023-02-28T06:01:35;8.20;;;2.93;;
13439;SDS011;6792;57.698;11.946;2023-02-28T06:04:08;16.30;;;3.80;;
13439;SDS011;6792;57.698;11.946;2023-02-28T06:06:40;9.10;;;3.20;;
13439;SDS011;6792;57.698;11.946;2023-02-28T06:09:09;8.37;;;2.63;;
13439;SDS011;6792;57.698;11.946;2023-02-28T06:11:38;5.97;;;2.80;;
13439;SDS011;6792;57.698;11.946;2023-02-28T06:14:09;5.60;;;2.47;;
13439;SDS011;6792;57.698;11.946;2023-02-28T06:16:54;9.10;;;2.80;;
13439;SDS011;6792;57.698;11.946;2023-02-28T06:19:24;7.07;;;3.47;;
13439;SDS011;6792;57.698;11.946;2023-02-28T06:21:54;13.80;;;2.80;;
13439;SDS011;6792;57.698;11.946;2023-02-28T06:24:24;9.60;;;3.50;;
13439;SDS011;6792;57.698;11.946;2023-02-28T06:26:55;11.60;;;3.00;;
13439;SDS011;6792;57.698;11.946;2023-02-28T06:29:25;9.23;;;3.23;;
13439;SDS011;6792;57.698;11.946;2023-02-28T06:31:54;6.27;;;3.30;;
13439;SDS011;6792;57.698;11.946;2023-02-28T06:34:23;6.40;;;2.93;;
13439;SDS011;6792;57.698;11.946;2023-02-28T06:36:52;11.73;;;3.10;;
13439;SDS011;6792;57.698;11.946;2023-02-28T06:39:21;6.50;;;3.13;;
13439;SDS011;6792;57.698;11.946;2023-02-28T06:41:51;3.47;;;2.63;;
13439;SDS011;6792;57.698;11.946;2023-02-28T06:44:23;13.07;;;2.93;;
13439;SDS011;6792;57.698;11.946;2023-02-28T06:46:52;9.10;;;2.97;;
13439;SDS011;6792;57.698;11.946;2023-02-28T06:49:21;7.20;;;2.47;;
13439;SDS011;6792;57.698;11.946;2023-02-28T06:51:50;6.60;;;2.93;;
13439;SDS011;6792;57.698;11.946;2023-02-28T06:54:19;15.20;;;3.00;;
13439;SDS011;6792;57.698;11.946;2023-02-28T06:56:48;10.70;;;3.30;;
13439;SDS011;6792;57.698;11.946;2023-02-28T06:59:18;7.37;;;3.17;;
13439;SDS011;6792;57.698;11.946;2023-02-28T07:01:48;9.80;;;3.07;;
13439;SDS011;6792;57.698;11.946;2023-02-28T07:04:17;18.80;;;3.03;;
13439;SDS011;6792;57.698;11.946;2023-02-28T07:06:47;11.87;;;3.13;;
13439;SDS011;6792;57.698;11.946;2023-02-28T07:09:25;15.73;;;3.20;;
13439;SDS011;6792;57.698;11.946;2023-02-28T07:11:56;9.93;;;2.60;;
13439;SDS011;6792;57.698;11.946;2023-02-28T07:14:26;5.90;;;3.17;;
13439;SDS011;6792;57.698;11.946;2023-02-28T07:16:55;9.30;;;3.33;;
13439;SDS011;6792;57.698;11.946;2023-02-28T07:19:24;12.40;;;3.83;;
13439;SDS011;6792;57.698;11.946;2023-02-28T07:21:54;15.50;;;3.30;;
13439;SDS011;6792;57.698;11.946;2023-02-28T07:24:24;19.67;;;3.67;;
13439;SDS011;6792;57.698;11.946;2023-02-28T07:26:54;5.23;;;3.10;;
13439;SDS011;6792;57.698;11.946;2023-02-28T07:29:24;17.33;;;4.27;;
13439;SDS011;6792;57.698;11.946;2023-02-28T07:31:53;10.73;;;3.47;;
13439;SDS011;6792;57.698;11.946;2023-02-28T07:34:25;10.03;;;3.47;;
13439;SDS011;6792;57.698;11.946;2023-02-28T07:36:54;8.07;;;3.67;;
13439;SDS011;6792;57.698;11.946;2023-02-28T07:39:23;11.67;;;4.00;;
13439;SDS011;6792;57.698;11.946;2023-02-28T07:41:53;14.13;;;4.67;;
13439;SDS011;6792;57.698;11.946;2023-02-28T07:44:22;20.20;;;5.27;;
13439;SDS011;6792;57.698;11.946;2023-02-28T07:46:51;20.27;;;6.63;;
13439;SDS011;6792;57.698;11.946;2023-02-28T07:49:20;19.43;;;5.57;;
13439;SDS011;6792;57.698;11.946;2023-02-28T07:51:49;17.60;;;6.33;;
13439;SDS011;6792;57.698;11.946;2023-02-28T07:54:18;18.40;;;5.87;;
13439;SDS011;6792;57.698;11.946;2023-02-28T07:56:47;23.90;;;6.40;;
13439;SDS011;6792;57.698;11.946;2023-02-28T07:59:17;20.13;;;5.90;;
13439;SDS011;6792;57.698;11.946;2023-02-28T08:01:46;18.47;;;6.93;;
13439;SDS011;6792;57.698;11.946;2023-02-28T08:04:16;17.67;;;6.63;;
13439;SDS011;6792;57.698;11.946;2023-02-28T08:06:45;35.30;;;6.70;;
13439;SDS011;6792;57.698;11.946;2023-02-28T08:09:14;22.07;;;7.57;;
13439;SDS011;6792;57.698;11.946;2023-02-28T08:11:46;16.77;;;7.07;;
13439;SDS011;6792;57.698;11.946;2023-02-28T08:14:15;18.20;;;7.20;;
13439;SDS011;6792;57.698;11.946;2023-02-28T08:16:47;18.93;;;6.63;;
13439;SDS011;6792;57.698;11.946;2023-02-28T08:19:20;15.83;;;6.60;;
13439;SDS011;6792;57.698;11.946;2023-02-28T08:21:53;15.77;;;5.97;;
13439;SDS011;6792;57.698;11.946;2023-02-28T08:24:22;13.23;;;5.50;;
13439;SDS011;6792;57.698;11.946;2023-02-28T08:26:51;14.30;;;5.60;;
13439;SDS011;6792;57.698;11.946;2023-02-28T08:29:20;11.17;;;5.00;;
13439;SDS011;6792;57.698;11.946;2023-02-28T08:31:49;11.33;;;5.10;;
13439;SDS011;6792;57.698;11.946;2023-02-28T08:34:19;11.43;;;4.87;;
13439;SDS011;6792;57.698;11.946;2023-02-28T08:36:48;9.47;;;4.23;;
13439;SDS011;6792;57.698;11.946;2023-02-28T08:39:17;9.23;;;4.37;;
13439;SDS011;6792;57.698;11.946;2023-02-28T08:41:46;9.30;;;3.90;;
13439;SDS011;6792;57.698;11.946;2023-02-28T08:44:15;10.17;;;3.90;;
13439;SDS011;6792;57.698;11.946;2023-02-28T08:46:45;10.30;;;4.00;;
13439;SDS011;6792;57.698;11.946;2023-02-28T08:49:14;14.03;;;4.33;;
13439;SDS011;6792;57.698;11.946;2023-02-28T08:51:45;11.07;;;4.13;;
13439;SDS011;6792;57.698;11.946;2023-02-28T08:54:14;10.13;;;4.87;;
13439;SDS011;6792;57.698;11.946;2023-02-28T08:56:44;14.67;;;4.87;;
13439;SDS011;6792;57.698;11.946;2023-02-28T08:59:14;12.97;;;4.97;;
13439;SDS011;6792;57.698;11.946;2023-02-28T09:01:43;10.87;;;5.37;;
13439;SDS011;6792;57.698;11.946;2023-02-28T09:04:12;17.43;;;5.30;;
13439;SDS011;6792;57.698;11.946;2023-02-28T09:06:41;11.73;;;4.93;;
13439;SDS011;6792;57.698;11.946;2023-02-28T09:09:11;11.83;;;5.33;;
13439;SDS011;6792;57.698;11.946;2023-02-28T09:11:40;18.67;;;5.83;;
13439;SDS011;6792;57.698;11.946;2023-02-28T09:14:09;13.37;;;5.80;;
13439;SDS011;6792;57.698;11.946;2023-02-28T09:16:40;13.70;;;5.30;;
13439;SDS011;6792;57.698;11.946;2023-02-28T09:19:10;14.10;;;5.87;;
13439;SDS011;6792;57.698;11.946;2023-02-28T09:21:41;18.63;;;5.93;;
13439;SDS011;6792;57.698;11.946;2023-02-28T09:24:10;15.03;;;5.97;;
13439;SDS011;6792;57.698;11.946;2023-02-28T09:26:41;14.80;;;6.10;;
13439;SDS011;6792;57.698;11.946;2023-02-28T09:29:10;13.07;;;5.00;;
13439;SDS011;6792;57.698;11.946;2023-02-28T09:31:40;13.83;;;5.47;;
13439;SDS011;6792;57.698;11.946;2023-02-28T09:34:13;9.37;;;4.70;;
13439;SDS011;6792;57.698;11.946;2023-02-28T09:36:45;10.50;;;4.97;;
13439;SDS011;6792;57.698;11.946;2023-02-28T09:39:15;13.27;;;5.83;;
13439;SDS011;6792;57.698;11.946;2023-02-28T09:41:44;7.90;;;4.63;;
13439;SDS011;6792;57.698;11.946;2023-02-28T09:44:17;9.50;;;4.60;;
13439;SDS011;6792;57.698;11.946;2023-02-28T09:46:51;7.17;;;4.67;;
13439;SDS011;6792;57.698;11.946;2023-02-28T09:49:24;11.37;;;5.17;;
13439;SDS011;6792;57.698;11.946;2023-02-28T09:52:00;10.93;;;5.10;;
13439;SDS011;6792;57.698;11.946;2023-02-28T09:54:32;12.33;;;4.97;;
13439;SDS011;6792;57.698;11.946;2023-02-28T09:57:05;8.47;;;4.40;;
13439;SDS011;6792;57.698;11.946;2023-02-28T09:59:44;13.30;;;5.50;;
13439;SDS011;6792;57.698;11.946;2023-02-28T10:02:21;11.70;;;5.37;;
13439;SDS011;6792;57.698;11.946;2023-02-28T10:04:54;10.00;;;4.90;;
13439;SDS011;6792;57.698;11.946;2023-02-28T10:07:36;9.77;;;4.93;;
13439;SDS011;6792;57.698;11.946;2023-02-28T10:10:15;10.33;;;5.53;;
13439;SDS011;6792;57.698;11.946;2023-02-28T10:12:44;18.40;;;5.73;;
13439;SDS011;6792;57.698;11.946;2023-02-28T10:15:14;14.90;;;5.97;;
13439;SDS011;6792;57.698;11.946;2023-02-28T10:17:45;17.07;;;6.67;;
13439;SDS011;6792;57.698;11.946;2023-02-28T10:20:19;13.53;;;6.30;;
13439;SDS011;6792;57.698;11.946;2023-02-28T10:22:52;16.30;;;6.77;;
13439;SDS011;6792;57.698;11.946;2023-02-28T10:25:24;17.47;;;7.73;;
13439;SDS011;6792;57.698;11.946;2023-02-28T10:27:56;13.40;;;6.97;;
13439;SDS011;6792;57.698;11.946;2023-02-28T10:30:27;12.13;;;6.97;;
13439;SDS011;6792;57.698;11.946;2023-02-28T10:32:56;14.20;;;6.57;;
13439;SDS011;6792;57.698;11.946;2023-02-28T10:35:25;12.17;;;5.80;;
13439;SDS011;6792;57.698;11.946;2023-02-28T10:37:56;10.67;;;5.70;;
13439;SDS011;6792;57.698;11.946;2023-02-28T10:40:28;10.90;;;5.80;;
13439;SDS011;6792;57.698;11.946;2023-02-28T10:43:00;12.03;;;5.90;;
13439;SDS011;6792;57.698;11.946;2023-02-28T10:45:31;9.43;;;5.80;;
13439;SDS011;6792;57.698;11.946;2023-02-28T10:48:04;11.27;;;5.87;;
13439;SDS011;6792;57.698;11.946;2023-02-28T10:50:37;9.57;;;5.43;;
13439;SDS011;6792;57.698;11.946;2023-02-28T10:53:17;10.60;;;5.83;;
13439;SDS011;6792;57.698;11.946;2023-02-28T10:55:45;9.43;;;5.90;;
13439;SDS011;6792;57.698;11.946;2023-02-28T10:58:21;8.90;;;4.97;;
13439;SDS011;6792;57.698;11.946;2023-02-28T11:00:52;10.83;;;5.87;;
13439;SDS011;6792;57.698;11.946;2023-02-28T11:03:28;8.50;;;5.47;;
13439;SDS011;6792;57.698;11.946;2023-02-28T11:06:03;10.80;;;5.37;;
13439;SDS011;6792;57.698;11.946;2023-02-28T11:08:35;8.47;;;5.03;;
13439;SDS011;6792;57.698;11.946;2023-02-28T11:11:13;9.70;;;5.17;;
13439;SDS011;6792;57.698;11.946;2023-02-28T11:13:44;10.20;;;5.67;;
13439;SDS011;6792;57.698;11.946;2023-02-28T11:16:16;9.03;;;5.90;;
13439;SDS011;6792;57.698;11.946;2023-02-28T11:18:47;10.93;;;5.43;;
13439;SDS011;6792;57.698;11.946;2023-02-28T11:21:21;8.40;;;5.07;;
13439;SDS011;6792;57.698;11.946;2023-02-28T11:24:00;8.17;;;4.90;;
13439;SDS011;6792;57.698;11.946;2023-02-28T11:26:41;7.97;;;4.97;;
13439;SDS011;6792;57.698;11.946;2023-02-28T11:29:12;8.50;;;4.60;;
13439;SDS011;6792;57.698;11.946;2023-02-28T11:35:00;10.00;;;5.57;;
13439;SDS011;6792;57.698;11.946;2023-02-28T11:37:31;7.97;;;5.27;;
13439;SDS011;6792;57.698;11.946;2023-02-28T11:40:00;12.47;;;5.20;;
13439;SDS011;6792;57.698;11.946;2023-02-28T11:42:40;10.73;;;5.40;;
13439;SDS011;6792;57.698;11.946;2023-02-28T11:45:23;8.87;;;5.10;;
13439;SDS011;6792;57.698;11.946;2023-02-28T11:48:01;12.53;;;5.13;;
13439;SDS011;6792;57.698;11.946;2023-02-28T11:50:37;9.60;;;4.70;;
13439;SDS011;6792;57.698;11.946;2023-02-28T11:53:19;7.43;;;4.70;;
13439;SDS011;6792;57.698;11.946;2023-02-28T11:55:53;9.10;;;4.37;;
13439;SDS011;6792;57.698;11.946;2023-02-28T11:58:27;8.90;;;4.10;;
13439;SDS011;6792;57.698;11.946;2023-02-28T12:01:09;6.80;;;3.53;;
13439;SDS011;6792;57.698;11.946;2023-02-28T12:03:44;8.77;;;3.40;;
13439;SDS011;6792;57.698;11.946;2023-02-28T12:06:19;6.07;;;3.63;;
13439;SDS011;6792;57.698;11.946;2023-02-28T12:08:58;4.67;;;3.53;;
13439;SDS011;6792;57.698;11.946;2023-02-28T12:11:48;11.23;;;3.83;;
13439;SDS011;6792;57.698;11.946;2023-02-28T12:14:29;6.73;;;3.80;;
13439;SDS011;6792;57.698;11.946;2023-02-28T12:17:22;7.00;;;4.20;;
13439;SDS011;6792;57.698;11.946;2023-02-28T12:19:58;8.33;;;4.90;;
13439;SDS011;6792;57.698;11.946;2023-02-28T12:22:32;8.33;;;4.90;;
13439;SDS011;6792;57.698;11.946;2023-02-28T12:27:51;7.50;;;4.97;;
13439;SDS011;6792;57.698;11.946;2023-02-28T12:30:22;8.90;;;5.13;;
13439;SDS011;6792;57.698;11.946;2023-02-28T12:32:55;6.97;;;5.03;;
13439;SDS011;6792;57.698;11.946;2023-02-28T12:35:28;13.97;;;5.60;;
13439;SDS011;6792;57.698;11.946;2023-02-28T12:38:03;12.90;;;5.13;;
13439;SDS011;6792;57.698;11.946;2023-02-28T12:40:44;7.33;;;4.53;;
13439;SDS011;6792;57.698;11.946;2023-02-28T12:43:16;10.83;;;4.70;;
13439;SDS011;6792;57.698;11.946;2023-02-28T12:45:46;10.77;;;4.20;;
13439;SDS011;6792;57.698;11.946;2023-02-28T12:48:20;8.27;;;4.90;;
13439;SDS011;6792;57.698;11.946;2023-02-28T12:50:53;7.90;;;4.13;;
13439;SDS011;6792;57.698;11.946;2023-02-28T12:53:25;11.13;;;3.97;;
13439;SDS011;6792;57.698;11.946;2023-02-28T12:55:57;10.43;;;4.60;;
13439;SDS011;6792;57.698;11.946;2023-02-28T12:58:34;11.57;;;4.57;;
13439;SDS011;6792;57.698;11.946;2023-02-28T13:01:10;7.43;;;3.77;;
13439;SDS011;6792;57.698;11.946;2023-02-28T13:07:19;9.17;;;3.27;;
13439;SDS011;6792;57.698;11.946;2023-02-28T13:10:11;7.60;;;3.80;;
13439;SDS011;6792;57.698;11.946;2023-02-28T13:12:47;6.37;;;3.07;;
13439;SDS011;6792;57.698;11.946;2023-02-28T13:15:18;17.37;;;4.20;;
13439;SDS011;6792;57.698;11.946;2023-02-28T13:17:51;5.23;;;2.90;;
13439;SDS011;6792;57.698;11.946;2023-02-28T13:20:24;9.23;;;4.10;;
13439;SDS011;6792;57.698;11.946;2023-02-28T13:22:54;8.23;;;3.50;;
13439;SDS011;6792;57.698;11.946;2023-02-28T13:38:13;6.13;;;2.70;;
13439;SDS011;6792;57.698;11.946;2023-02-28T13:44:14;6.30;;;2.67;;
13439;SDS011;6792;57.698;11.946;2023-02-28T13:49:53;10.13;;;2.53;;
13439;SDS011;6792;57.698;11.946;2023-02-28T13:52:24;8.80;;;2.80;;
13439;SDS011;6792;57.698;11.946;2023-02-28T13:55:17;7.97;;;2.70;;
13439;SDS011;6792;57.698;11.946;2023-02-28T13:57:57;5.63;;;2.53;;
13439;SDS011;6792;57.698;11.946;2023-02-28T14:00:34;5.83;;;2.50;;
13439;SDS011;6792;57.698;11.946;2023-02-28T14:03:17;8.37;;;2.70;;
13439;SDS011;6792;57.698;11.946;2023-02-28T14:05:53;7.43;;;2.60;;
13439;SDS011;6792;57.698;11.946;2023-02-28T14:08:36;4.17;;;2.00;;
13439;SDS011;6792;57.698;11.946;2023-02-28T14:11:22;2.63;;;1.93;;
13439;SDS011;6792;57.698;11.946;2023-02-28T14:13:45;2.93;;;1.90;;
13439;SDS011;6792;57.698;11.946;2023-02-28T14:16:14;4.30;;;2.20;;
13439;SDS011;6792;57.698;11.946;2023-02-28T14:18:48;2.73;;;1.80;;
13439;SDS011;6792;57.698;11.946;2023-02-28T14:21:26;3.37;;;1.70;;
13439;SDS011;6792;57.698;11.946;2023-02-28T14:24:10;3.07;;;1.67;;
13439;SDS011;6792;57.698;11.946;2023-02-28T14:27:07;1.50;;;1.13;;
13439;SDS011;6792;57.698;11.946;2023-02-28T14:32:54;2.77;;;1.30;;
13439;SDS011;6792;57.698;11.946;2023-02-28T14:35:40;7.40;;;1.90;;
13439;SDS011;6792;57.698;11.946;2023-02-28T14:38:21;1.80;;;1.60;;
13439;SDS011;6792;57.698;11.946;2023-02-28T14:40:52;4.57;;;1.77;;
13439;SDS011;6792;57.698;11.946;2023-02-28T14:43:25;2.67;;;1.90;;
13439;SDS011;6792;57.698;11.946;2023-02-28T14:45:56;2.93;;;2.27;;
13439;SDS011;6792;57.698;11.946;2023-02-28T14:48:27;3.53;;;2.07;;
13439;SDS011;6792;57.698;11.946;2023-02-28T14:50:57;2.70;;;2.10;;
13439;SDS011;6792;57.698;11.946;2023-02-28T14:53:30;4.60;;;2.10;;
13439;SDS011;6792;57.698;11.946;2023-02-28T14:56:00;3.90;;;2.43;;
13439;SDS011;6792;57.698;11.946;2023-02-28T14:58:30;2.33;;;1.90;;
13439;SDS011;6792;57.698;11.946;2023-02-28T15:01:01;4.93;;;2.47;;
13439;SDS011;6792;57.698;11.946;2023-02-28T15:03:33;2.40;;;1.80;;
13439;SDS011;6792;57.698;11.946;2023-02-28T15:06:04;6.80;;;2.13;;
13439;SDS011;6792;57.698;11.946;2023-02-28T15:08:35;3.37;;;1.53;;
13439;SDS011;6792;57.698;11.946;2023-02-28T15:11:07;2.63;;;2.20;;
13439;SDS011;6792;57.698;11.946;2023-02-28T15:13:42;3.50;;;2.00;;
13439;SDS011;6792;57.698;11.946;2023-02-28T15:16:13;2.53;;;2.20;;
13439;SDS011;6792;57.698;11.946;2023-02-28T15:18:46;5.63;;;1.97;;
13439;SDS011;6792;57.698;11.946;2023-02-28T15:21:17;2.53;;;1.90;;
13439;SDS011;6792;57.698;11.946;2023-02-28T15:23:49;4.00;;;1.83;;
13439;SDS011;6792;57.698;11.946;2023-02-28T15:26:21;10.90;;;2.60;;
13439;SDS011;6792;57.698;11.946;2023-02-28T15:28:54;3.03;;;2.37;;
13439;SDS011;6792;57.698;11.946;2023-02-28T15:31:26;3.57;;;1.87;;
13439;SDS011;6792;57.698;11.946;2023-02-28T15:33:56;4.93;;;2.30;;
13439;SDS011;6792;57.698;11.946;2023-02-28T15:36:29;5.13;;;1.63;;
13439;SDS011;6792;57.698;11.946;2023-02-28T15:39:00;7.40;;;2.40;;
13439;SDS011;6792;57.698;11.946;2023-02-28T15:41:30;7.63;;;3.03;;
13439;SDS011;6792;57.698;11.946;2023-02-28T15:44:17;4.33;;;2.27;;
13439;SDS011;6792;57.698;11.946;2023-02-28T15:47:00;6.70;;;2.30;;
13439;SDS011;6792;57.698;11.946;2023-02-28T15:49:34;2.87;;;2.30;;
13439;SDS011;6792;57.698;11.946;2023-02-28T15:52:10;5.60;;;2.50;;